Time;durP1;ratioP1;P1;durP2;ratioP2;P2;SDS_P1;SDS_P2;PMS_P1;PMS_P2;Temp;Humidity;BMP_temperature;BMP_pressure;BME280_temperature;BME280_humidity;BME280_pressure;Samples;Min_cycle;Max_cycle;Signal;HPM_P1;HPM_P2
2021/05/17 00:00:33;;;;;;;2.17;0.70;;;;;;;6.52;100.00;92819.09;5074254;28;20244;-76
2021/05/17 00:03:01;;;;;;;0.73;0.73;;;;;;;6.53;100.00;92825.06;5074067;28;20226;-76
2021/05/17 00:05:29;;;;;;;1.03;0.73;;;;;;;6.53;100.00;92819.88;5074223;28;20244;-76
2021/05/17 00:07:55;;;;;;;0.60;0.60;;;;;;;6.61;100.00;92824.88;5073956;28;20656;-76
2021/05/17 00:10:22;;;;;;;1.60;0.57;;;;;;;6.65;100.00;92826.88;5074174;28;20221;-76
2021/05/17 00:12:48;;;;;;;0.60;0.60;;;;;;;6.64;100.00;92832.25;5074025;28;20199;-76
2021/05/17 00:15:18;;;;;;;0.70;0.70;;;;;;;6.80;100.00;92849.22;5073897;28;20749;-76
2021/05/17 00:17:45;;;;;;;0.70;0.70;;;;;;;6.82;100.00;92839.44;5073905;28;20194;-77
2021/05/17 00:20:13;;;;;;;2.70;0.80;;;;;;;6.81;100.00;92845.63;5073574;28;20199;-76
2021/05/17 00:22:39;;;;;;;1.33;0.43;;;;;;;6.87;100.00;92841.44;5073406;28;20227;-76
2021/05/17 00:25:06;;;;;;;3.07;0.80;;;;;;;6.85;100.00;92844.22;5073766;28;20317;-76
2021/05/17 00:27:32;;;;;;;0.60;0.60;;;;;;;6.84;100.00;92833.06;5073654;28;20712;-76
2021/05/17 00:29:59;;;;;;;2.13;0.50;;;;;;;6.84;100.00;92837.44;5073473;28;20199;-76
2021/05/17 00:32:26;;;;;;;0.63;0.50;;;;;;;6.91;100.00;92835.66;5075935;28;20227;-77
2021/05/17 00:34:52;;;;;;;0.70;0.70;;;;;;;6.99;100.00;92835.41;5073503;28;20195;-76
2021/05/17 00:37:18;;;;;;;0.90;0.90;;;;;;;6.99;100.00;92832.81;5073375;28;20206;-76
2021/05/17 00:39:45;;;;;;;0.70;0.70;;;;;;;6.99;100.00;92829.44;5073662;28;20203;-76
2021/05/17 00:42:12;;;;;;;0.80;0.63;;;;;;;7.01;100.00;92837.81;5073473;28;20225;-76
2021/05/17 00:44:40;;;;;;;0.97;0.43;;;;;;;7.06;100.00;92840.63;5073281;28;20234;-76
2021/05/17 00:47:11;;;;;;;2.10;0.70;;;;;;;7.06;100.00;92830.25;5073277;28;20745;-76
2021/05/17 00:49:38;;;;;;;0.50;0.50;;;;;;;7.00;100.00;92821.47;5073183;28;20214;-76
2021/05/17 00:52:06;;;;;;;0.63;0.60;;;;;;;6.98;100.00;92818.28;5073233;28;20202;-75
2021/05/17 00:54:32;;;;;;;1.40;0.63;;;;;;;6.90;100.00;92823.66;5071982;28;20439;-77
2021/05/17 00:56:58;;;;;;;0.50;0.50;;;;;;;6.77;100.00;92813.31;5073291;28;20203;-77
2021/05/17 00:59:24;;;;;;;0.50;0.50;;;;;;;6.63;100.00;92810.72;5073190;28;20199;-76
2021/05/17 01:01:51;;;;;;;0.40;0.40;;;;;;;6.49;100.00;92809.13;5073140;28;20199;-76
2021/05/17 01:04:17;;;;;;;0.60;0.60;;;;;;;6.34;100.00;92811.91;5072904;28;20708;-76
2021/05/17 01:06:45;;;;;;;0.83;0.50;;;;;;;6.25;100.00;92802.75;5073228;28;20202;-76
2021/05/17 01:09:12;;;;;;;1.20;0.53;;;;;;;6.16;100.00;92809.09;5073296;28;20194;-76
2021/05/17 01:11:39;;;;;;;0.73;0.53;;;;;;;6.05;100.00;92808.69;5072897;28;20729;-75
2021/05/17 01:14:07;;;;;;;2.50;0.63;;;;;;;6.01;100.00;92807.50;5073037;28;20198;-76
2021/05/17 01:16:34;;;;;;;0.60;0.60;;;;;;;5.92;100.00;92803.44;5072871;28;20203;-76
2021/05/17 01:19:00;;;;;;;0.50;0.50;;;;;;;6.04;100.00;92801.91;5072901;28;20206;-78
2021/05/17 01:21:32;;;;;;;0.80;0.60;;;;;;;6.03;100.00;92802.09;5073218;28;20203;-75
2021/05/17 01:23:59;;;;;;;0.73;0.60;;;;;;;5.89;100.00;92803.84;5072896;28;20230;-75
2021/05/17 01:26:26;;;;;;;0.67;0.50;;;;;;;5.68;100.00;92794.41;5073040;28;20195;-77
2021/05/17 01:28:55;;;;;;;0.40;0.40;;;;;;;5.67;100.00;92793.63;5072796;28;20214;-75
2021/05/17 01:31:21;;;;;;;3.03;0.80;;;;;;;5.70;100.00;92793.22;5072670;28;20280;-75
2021/05/17 01:33:48;;;;;;;0.93;0.60;;;;;;;5.72;100.00;92808.56;5072855;28;20214;-75
2021/05/17 01:36:16;;;;;;;0.63;0.63;;;;;;;5.80;100.00;92797.25;5072738;28;20213;-76
2021/05/17 01:38:44;;;;;;;2.50;0.77;;;;;;;5.86;100.00;92794.69;5072803;28;20202;-76
2021/05/17 01:41:12;;;;;;;1.13;0.70;;;;;;;5.99;100.00;92795.72;5072771;28;20210;-77
2021/05/17 01:43:41;;;;;;;5.73;0.80;;;;;;;6.05;100.00;92792.34;5072690;28;20210;-76
2021/05/17 01:46:09;;;;;;;0.87;0.80;;;;;;;6.01;100.00;92789.34;5072465;28;20206;-75
2021/05/17 01:48:39;;;;;;;1.87;0.63;;;;;;;6.13;100.00;92789.56;5072748;28;20202;-76
2021/05/17 01:51:08;;;;;;;2.27;0.80;;;;;;;6.22;100.00;92793.56;5072687;28;20207;-76
2021/05/17 01:53:36;;;;;;;4.07;0.83;;;;;;;6.17;100.00;92790.75;5072544;28;20202;-75
2021/05/17 01:56:02;;;;;;;2.07;0.90;;;;;;;6.24;100.00;92791.56;5072451;28;20202;-75
2021/05/17 01:58:29;;;;;;;3.47;0.80;;;;;;;6.28;100.00;92797.16;5072394;28;20268;-76
2021/05/17 02:00:55;;;;;;;3.53;0.87;;;;;;;6.36;100.00;92794.38;5072537;28;20225;-76
2021/05/17 02:03:21;;;;;;;2.27;1.47;;;;;;;6.38;100.00;92786.38;5072600;28;20199;-76
2021/05/17 02:05:48;;;;;;;2.87;1.00;;;;;;;6.44;100.00;92788.19;5074875;28;20203;-75
2021/05/17 02:08:17;;;;;;;2.53;0.70;;;;;;;6.47;100.00;92780.78;5076318;28;20199;-78
2021/05/17 02:10:44;;;;;;;2.27;0.90;;;;;;;6.47;100.00;92785.19;5076310;28;20195;-75
2021/05/17 02:13:16;;;;;;;2.33;0.70;;;;;;;6.55;100.00;92790.19;5076063;28;20205;-75
2021/05/17 02:15:43;;;;;;;3.53;1.03;;;;;;;6.64;100.00;92788.16;5076325;28;20270;-75
2021/05/17 02:18:10;;;;;;;0.93;0.70;;;;;;;6.65;100.00;92793.16;5076208;28;20202;-76
2021/05/17 02:20:38;;;;;;;2.93;0.70;;;;;;;6.64;100.00;92795.94;5076055;28;20221;-76
2021/05/17 02:23:05;;;;;;;2.50;0.67;;;;;;;6.65;100.00;92794.97;5075779;28;20231;-77
2021/05/17 02:25:32;;;;;;;4.03;0.90;;;;;;;6.72;100.00;92792.38;5076753;28;20496;-76
2021/05/17 02:27:58;;;;;;;6.10;1.23;;;;;;;6.80;100.00;92802.53;5076964;28;20441;-76
2021/05/17 02:30:25;;;;;;;3.47;0.90;;;;;;;6.77;100.00;92803.72;5076009;28;20202;-76
2021/05/17 02:32:53;;;;;;;3.23;0.83;;;;;;;6.80;100.00;92789.56;5075851;28;20202;-76
2021/05/17 02:35:20;;;;;;;4.37;1.10;;;;;;;6.87;100.00;92792.16;5075896;28;20209;-76
2021/05/17 02:37:47;;;;;;;7.33;1.33;;;;;;;6.99;100.00;92793.91;5075562;28;20252;-76
2021/05/17 02:40:14;;;;;;;9.83;1.10;;;;;;;6.96;100.00;92780.53;5075568;28;20661;-76
2021/05/17 02:42:43;;;;;;;7.53;0.87;;;;;;;6.97;100.00;92789.94;5075620;28;20202;-76
2021/05/17 02:45:11;;;;;;;3.27;1.13;;;;;;;6.90;100.00;92792.53;5075597;28;20226;-76
2021/05/17 02:47:38;;;;;;;4.90;1.30;;;;;;;6.92;100.00;92794.94;5075575;28;20289;-76
2021/05/17 02:50:08;;;;;;;3.67;1.00;;;;;;;6.94;100.00;92790.34;5075353;28;20661;-77
2021/05/17 02:52:34;;;;;;;7.33;1.00;;;;;;;6.94;100.00;92796.31;5075488;28;20195;-76
2021/05/17 02:55:04;;;;;;;9.05;1.10;;;;;;;6.96;100.00;92794.34;5075557;28;20371;-76
2021/05/17 02:57:41;;;;;;;9.10;1.37;;;;;;;6.95;100.00;92803.09;5075290;28;20198;-76
2021/05/17 03:00:13;;;;;;;11.27;1.20;;;;;;;6.98;100.00;92802.72;5075375;28;20199;-76
2021/05/17 03:02:58;;;;;;;5.23;1.27;;;;;;;6.83;100.00;92805.53;5075266;28;20202;-76
2021/05/17 03:05:26;;;;;;;7.03;1.00;;;;;;;6.72;100.00;92798.34;5074225;28;20234;-76
2021/05/17 03:08:04;;;;;;;7.57;1.20;;;;;;;6.57;100.00;92808.13;5075274;28;20210;-78
2021/05/17 03:10:32;;;;;;;6.97;1.20;;;;;;;6.59;100.00;92813.91;5075148;28;20271;-75
2021/05/17 03:13:06;;;;;;;5.97;1.07;;;;;;;6.48;100.00;92818.69;5075246;28;20213;-76
2021/05/17 03:15:33;;;;;;;1.70;0.70;;;;;;;6.46;100.00;92817.28;5074642;28;20213;-77
2021/05/17 03:17:59;;;;;;;2.63;0.93;;;;;;;6.42;100.00;92823.88;5075207;28;20206;-76
2021/05/17 03:20:26;;;;;;;4.43;0.70;;;;;;;6.36;100.00;92825.47;5074975;28;20199;-76
2021/05/17 03:22:55;;;;;;;3.93;0.77;;;;;;;6.38;100.00;92830.44;5074755;28;20226;-76
2021/05/17 03:25:24;;;;;;;2.37;0.70;;;;;;;6.33;100.00;92825.06;5074698;28;20233;-76
2021/05/17 03:27:51;;;;;;;1.57;0.90;;;;;;;6.32;100.00;92837.22;5074816;28;20210;-76
2021/05/17 03:30:18;;;;;;;1.97;0.70;;;;;;;6.41;100.00;92837.84;5074693;28;20249;-75
2021/05/17 03:32:44;;;;;;;2.37;0.70;;;;;;;6.46;100.00;92840.63;5074864;28;20199;-76
2021/05/17 03:35:11;;;;;;;1.13;0.73;;;;;;;6.50;100.00;92841.06;5074653;28;20209;-77
2021/05/17 03:37:37;;;;;;;2.63;0.80;;;;;;;6.59;100.00;92839.84;5074616;28;20202;-75
2021/05/17 03:40:06;;;;;;;1.03;0.70;;;;;;;6.56;100.00;92840.22;5074678;28;20195;-77
2021/05/17 03:42:32;;;;;;;2.23;0.83;;;;;;;6.54;100.00;92848.22;5074308;28;20653;-77
2021/05/17 03:44:57;;;;;;;2.93;0.80;;;;;;;6.57;100.00;92847.81;5074520;28;20272;-77
2021/05/17 03:47:24;;;;;;;1.97;0.67;;;;;;;6.60;100.00;92852.63;5074566;28;20205;-77
2021/05/17 03:49:50;;;;;;;4.90;0.80;;;;;;;6.63;100.00;92857.41;5074508;28;20202;-77
2021/05/17 03:52:16;;;;;;;2.43;0.70;;;;;;;6.65;100.00;92865.78;5074199;28;20601;-76
2021/05/17 03:54:42;;;;;;;3.10;0.80;;;;;;;6.62;100.00;92867.97;5074275;28;20249;-76
2021/05/17 03:57:08;;;;;;;0.67;0.53;;;;;;;6.58;100.00;92864.97;5074157;28;20601;-76
2021/05/17 03:59:35;;;;;;;4.50;0.70;;;;;;;6.49;100.00;92871.34;5074379;28;20237;-76
2021/05/17 04:02:01;;;;;;;2.60;0.70;;;;;;;6.47;100.00;92870.75;5074267;28;20199;-76
2021/05/17 04:04:29;;;;;;;3.63;0.90;;;;;;;6.32;100.00;92870.94;5074164;28;20226;-76
2021/05/17 04:06:59;;;;;;;1.23;0.80;;;;;;;6.23;100.00;92875.50;5074089;28;20293;-76
2021/05/17 04:14:54;;;;;;;1.67;0.73;;;;;;;6.11;100.00;92879.63;5073670;28;20557;-76
2021/05/17 04:17:20;;;;;;;1.13;0.83;;;;;;;6.07;100.00;92878.44;5073753;28;20199;-76
2021/05/17 04:19:46;;;;;;;2.57;0.80;;;;;;;6.08;100.00;92880.84;5073812;28;20325;-76
2021/05/17 04:22:12;;;;;;;4.73;0.70;;;;;;;6.08;100.00;92888.63;5073522;28;20257;-75
2021/05/17 04:24:38;;;;;;;3.27;1.07;;;;;;;6.13;100.00;92882.03;5073495;28;20227;-77
2021/05/17 04:27:04;;;;;;;5.43;0.80;;;;;;;6.11;100.00;92887.41;5073186;28;20195;-77
2021/05/17 04:29:31;;;;;;;5.30;1.20;;;;;;;6.11;100.00;92884.81;5073204;28;20649;-76
2021/05/17 04:31:57;;;;;;;0.97;0.73;;;;;;;6.10;100.00;92885.84;5073738;28;20692;-77
2021/05/17 04:34:23;;;;;;;5.83;1.10;;;;;;;6.10;100.00;92884.03;5091510;28;20194;-77
2021/05/17 04:36:49;;;;;;;3.00;1.00;;;;;;;6.17;100.00;92891.03;5093579;28;20198;-77
2021/05/17 04:39:15;;;;;;;2.40;0.90;;;;;;;6.15;100.00;92880.88;5093910;28;20198;-77
2021/05/17 04:41:41;;;;;;;2.40;0.80;;;;;;;6.15;100.00;92875.69;5093606;28;20231;-77
2021/05/17 04:44:07;;;;;;;3.70;1.20;;;;;;;6.18;100.00;92879.66;5093670;28;20241;-76
2021/05/17 04:46:34;;;;;;;5.13;1.10;;;;;;;6.18;100.00;92887.44;5093562;28;20202;-77
2021/05/17 04:49:00;;;;;;;4.07;1.60;;;;;;;6.13;100.00;92895.00;5093506;28;20201;-76
2021/05/17 04:51:26;;;;;;;8.10;1.50;;;;;;;6.15;100.00;92885.25;5093187;28;20279;-76
2021/05/17 04:53:53;;;;;;;4.23;0.90;;;;;;;6.25;100.00;92883.09;5093681;28;20209;-77
2021/05/17 04:56:20;;;;;;;4.30;1.07;;;;;;;6.33;100.00;92882.91;5093505;28;20202;-76
2021/05/17 04:58:46;;;;;;;6.70;1.27;;;;;;;6.46;100.00;92892.47;5093362;28;20202;-77
2021/05/17 05:01:12;;;;;;;6.13;1.63;;;;;;;6.53;100.00;92888.13;5093274;28;20652;-77
2021/05/17 05:03:39;;;;;;;3.17;1.00;;;;;;;6.57;100.00;92891.09;5093163;28;20198;-76
2021/05/17 05:06:05;;;;;;;9.53;2.17;;;;;;;6.63;100.00;92887.72;5093154;28;20667;-76
2021/05/17 05:08:31;;;;;;;1.27;1.10;;;;;;;6.58;100.00;92890.91;5093115;28;20750;-77
2021/05/17 05:10:57;;;;;;;5.20;1.13;;;;;;;6.62;100.00;92891.31;5093458;28;20210;-76
2021/05/17 05:13:23;;;;;;;1.27;0.87;;;;;;;6.65;100.00;92896.91;5093262;28;20202;-76
2021/05/17 05:15:51;;;;;;;3.73;1.10;;;;;;;6.61;100.00;92903.50;5093202;28;20579;-77
2021/05/17 05:18:17;;;;;;;3.10;1.20;;;;;;;6.70;100.00;92895.53;5093022;28;20206;-76
2021/05/17 05:20:44;;;;;;;1.77;0.90;;;;;;;6.86;100.00;92897.69;5092951;28;20209;-76
2021/05/17 05:23:13;;;;;;;5.37;1.67;;;;;;;6.85;100.00;92903.91;5093005;28;20316;-77
2021/05/17 05:26:02;;;;;;;6.37;1.40;;;;;;;6.87;100.00;92903.72;5092980;28;20558;-77
2021/05/17 05:28:37;;;;;;;3.23;1.20;;;;;;;6.85;100.00;92901.31;5092872;28;20198;-77
2021/05/17 05:31:09;;;;;;;5.40;1.40;;;;;;;6.94;100.00;92900.09;5092914;28;20678;-77
2021/05/17 05:33:35;;;;;;;10.90;2.60;;;;;;;7.04;100.00;92895.31;5092928;28;20672;-77
2021/05/17 05:36:02;;;;;;;7.37;1.57;;;;;;;6.93;100.00;92901.13;5092951;28;20198;-76
2021/05/17 05:38:28;;;;;;;4.47;1.60;;;;;;;6.92;100.00;92896.91;5093049;28;20255;-77
2021/05/17 05:40:54;;;;;;;3.43;1.40;;;;;;;6.84;100.00;92902.28;5097141;28;20202;-76
2021/05/17 05:43:20;;;;;;;2.10;1.27;;;;;;;6.89;100.00;92901.69;5096889;28;20228;-77
2021/05/17 05:45:46;;;;;;;3.43;1.00;;;;;;;7.29;100.00;92897.28;5097174;28;20234;-76
2021/05/17 05:48:13;;;;;;;4.17;1.10;;;;;;;7.23;100.00;92900.69;5097171;28;20206;-76
2021/05/17 05:50:39;;;;;;;5.57;1.23;;;;;;;7.20;100.00;92903.69;5097089;28;20205;-76
2021/05/17 05:53:06;;;;;;;8.80;1.33;;;;;;;7.39;100.00;92894.28;5097056;28;20216;-76
2021/05/17 05:55:32;;;;;;;3.83;0.90;;;;;;;7.50;100.00;92908.44;5096818;28;20231;-76
2021/05/17 05:57:58;;;;;;;1.93;1.00;;;;;;;7.72;100.00;92911.59;5096698;28;20237;-76
2021/05/17 06:00:29;;;;;;;6.77;1.47;;;;;;;7.84;100.00;92920.31;5096955;28;20209;-76
2021/05/17 06:02:55;;;;;;;3.70;0.73;;;;;;;7.58;100.00;92911.63;5096961;28;20205;-76
2021/05/17 06:05:21;;;;;;;7.00;0.80;;;;;;;7.72;100.00;92914.19;5096663;28;20226;-76
2021/05/17 06:07:47;;;;;;;2.63;0.80;;;;;;;7.78;100.00;92916.75;5096677;28;20221;-76
2021/05/17 06:10:15;;;;;;;2.87;0.87;;;;;;;7.83;100.00;92918.75;5096559;28;20550;-76
2021/05/17 06:12:41;;;;;;;7.10;0.70;;;;;;;7.85;100.00;92918.53;5096366;28;20320;-76
2021/05/17 06:15:08;;;;;;;6.97;1.90;;;;;;;7.87;100.00;92921.72;5096562;28;20215;-76
2021/05/17 06:17:35;;;;;;;3.33;1.20;;;;;;;7.73;100.00;92913.97;5096535;28;20607;-76
2021/05/17 06:20:01;;;;;;;5.67;1.00;;;;;;;7.69;100.00;92924.97;5096336;28;20249;-75
2021/05/17 06:22:29;;;;;;;2.37;0.70;;;;;;;7.54;100.00;92931.22;5096184;28;20233;-76
2021/05/17 06:24:57;;;;;;;2.90;0.80;;;;;;;7.38;100.00;92936.84;5096236;28;20314;-76
2021/05/17 06:27:24;;;;;;;2.47;0.90;;;;;;;7.50;100.00;92937.81;5096218;28;20198;-76
2021/05/17 06:29:53;;;;;;;1.43;0.77;;;;;;;7.69;100.00;92936.16;5096045;28;20201;-76
2021/05/17 06:32:21;;;;;;;2.53;0.90;;;;;;;7.77;100.00;92935.94;5091735;28;20202;-76
2021/05/17 06:34:49;;;;;;;0.97;0.60;;;;;;;7.80;100.00;92942.53;5075945;28;20209;-75
2021/05/17 06:37:15;;;;;;;2.30;0.70;;;;;;;7.99;100.00;92927.09;5075777;28;20210;-76
2021/05/17 06:39:41;;;;;;;3.40;0.83;;;;;;;8.24;100.00;92938.38;5075547;28;20203;-77
2021/05/17 06:42:08;;;;;;;4.70;1.03;;;;;;;8.26;100.00;92940.78;5075799;28;20195;-76
2021/05/17 06:44:35;;;;;;;4.87;1.00;;;;;;;8.39;100.00;92940.72;5075793;28;20241;-77
2021/05/17 06:47:02;;;;;;;3.40;0.87;;;;;;;8.20;100.00;92947.59;5075721;28;20195;-76
2021/05/17 06:49:29;;;;;;;3.23;1.00;;;;;;;8.35;100.00;92947.34;5075444;28;20669;-76
2021/05/17 06:51:56;;;;;;;3.60;0.93;;;;;;;8.26;100.00;92948.56;5074843;28;20234;-76
2021/05/17 06:54:25;;;;;;;2.77;0.57;;;;;;;8.52;100.00;92958.88;5075302;28;20225;-77
2021/05/17 06:56:54;;;;;;;2.10;0.70;;;;;;;8.58;100.00;92948.69;5075432;28;20646;-76
2021/05/17 06:59:23;;;;;;;2.17;0.67;;;;;;;8.60;100.00;92951.84;5075438;28;20231;-76
2021/05/17 07:01:50;;;;;;;1.90;0.77;;;;;;;8.40;100.00;92960.53;5075333;28;20202;-76
2021/05/17 07:04:17;;;;;;;0.73;0.70;;;;;;;8.31;100.00;92956.53;5075166;28;20219;-77
2021/05/17 07:06:51;;;;;;;2.80;0.80;;;;;;;8.33;100.00;92957.16;5075081;28;20281;-76
2021/05/17 07:12:04;;;;;;;2.50;0.70;;;;;;;8.10;100.00;92966.22;5075181;28;20615;-75
2021/05/17 07:14:30;;;;;;;2.60;0.77;;;;;;;7.93;100.00;92965.88;5074930;28;20566;-75
2021/05/17 07:16:57;;;;;;;1.37;0.70;;;;;;;7.86;100.00;92959.09;5075000;28;20203;-76
2021/05/17 07:19:23;;;;;;;3.83;0.80;;;;;;;7.89;100.00;92961.31;5074913;28;20202;-75
2021/05/17 07:24:33;;;;;;;1.10;0.87;;;;;;;8.09;100.00;92980.25;5074898;28;20264;-77
2021/05/17 07:26:59;;;;;;;0.83;0.50;;;;;;;8.11;100.00;92988.63;5074947;28;20195;-76
2021/05/17 07:29:26;;;;;;;1.73;0.93;;;;;;;8.10;100.00;92996.66;5074778;28;20209;-76
2021/05/17 07:31:52;;;;;;;1.30;0.70;;;;;;;8.20;100.00;92985.81;5074647;28;20202;-75
2021/05/17 07:34:20;;;;;;;2.10;0.70;;;;;;;8.08;100.00;92983.06;5074975;28;20261;-77
2021/05/17 07:36:47;;;;;;;2.33;0.90;;;;;;;8.17;100.00;92987.00;5074742;28;20207;-77
2021/05/17 07:39:14;;;;;;;2.60;0.63;;;;;;;8.15;100.00;92987.22;5074762;28;20253;-76
2021/05/17 07:41:40;;;;;;;2.40;1.00;;;;;;;8.40;100.00;92986.53;5074617;28;20206;-75
2021/05/17 07:44:07;;;;;;;0.67;0.50;;;;;;;8.56;100.00;92989.69;5074521;28;20658;-76
2021/05/17 07:46:33;;;;;;;1.60;0.80;;;;;;;8.50;100.00;92984.31;5074642;28;20203;-76
2021/05/17 07:49:11;;;;;;;2.23;0.80;;;;;;;8.75;100.00;92990.59;5074341;28;20226;-76
2021/05/17 07:51:41;;;;;;;1.07;0.63;;;;;;;8.87;100.00;92983.72;5074524;28;20740;-76
2021/05/17 07:54:08;;;;;;;5.87;0.77;;;;;;;8.91;100.00;92992.72;5074454;28;20213;-76
2021/05/17 07:56:34;;;;;;;2.10;0.70;;;;;;;8.89;100.00;92989.50;5074275;28;20225;-76
2021/05/17 07:59:00;;;;;;;0.60;0.53;;;;;;;8.59;100.00;92989.28;5074167;28;20863;-75
2021/05/17 08:01:26;;;;;;;0.97;0.80;;;;;;;8.54;100.00;92991.69;5074241;28;20195;-76
2021/05/17 08:03:52;;;;;;;3.03;0.70;;;;;;;8.64;100.00;92999.84;5073220;28;20205;-76
2021/05/17 08:06:18;;;;;;;0.80;0.70;;;;;;;8.73;100.00;93001.22;5074196;28;20199;-77
2021/05/17 08:08:45;;;;;;;0.60;0.60;;;;;;;8.80;100.00;93006.41;5074139;28;20195;-76
2021/05/17 08:11:11;;;;;;;3.10;0.67;;;;;;;8.85;100.00;92999.53;5073940;28;20650;-76
2021/05/17 08:13:39;;;;;;;0.63;0.57;;;;;;;9.02;100.00;93004.25;5073934;28;20207;-76
2021/05/17 08:16:05;;;;;;;0.53;0.53;;;;;;;8.65;100.00;93020.47;5074046;28;20234;-76
2021/05/17 08:18:32;;;;;;;1.13;0.40;;;;;;;8.81;100.00;93011.41;5073983;28;20547;-77
2021/05/17 08:20:58;;;;;;;0.83;0.47;;;;;;;8.79;100.00;93010.81;5072749;28;20999;-77
2021/05/17 08:23:24;;;;;;;2.60;0.70;;;;;;;9.32;100.00;93014.09;5073632;28;20266;-76
2021/05/17 08:25:50;;;;;;;1.50;0.90;;;;;;;9.84;100.00;93019.88;5073512;28;20223;-76
2021/05/17 08:28:16;;;;;;;2.60;1.00;;;;;;;10.11;100.00;93009.22;5073843;28;20207;-76
2021/05/17 08:30:46;;;;;;;2.80;0.70;;;;;;;10.24;98.82;93011.69;5073605;28;20682;-77
2021/05/17 08:33:14;;;;;;;2.83;0.60;;;;;;;9.95;98.29;93016.56;5073668;28;20199;-76
2021/05/17 08:35:41;;;;;;;1.37;0.60;;;;;;;9.62;100.00;93014.25;5073464;28;20755;-76
2021/05/17 08:38:07;;;;;;;2.30;0.83;;;;;;;8.88;100.00;93022.56;5072742;28;20203;-76
2021/05/17 08:40:35;;;;;;;3.67;0.80;;;;;;;8.71;100.00;93029.28;5075178;28;20195;-76
2021/05/17 08:43:02;;;;;;;2.73;0.70;;;;;;;8.85;100.00;93012.56;5073455;28;20226;-77
2021/05/17 08:45:28;;;;;;;1.77;0.80;;;;;;;8.89;100.00;93016.34;5073355;28;20226;-76
2021/05/17 08:47:54;;;;;;;1.57;0.93;;;;;;;9.20;100.00;93022.56;5073342;28;20203;-76
2021/05/17 08:50:21;;;;;;;3.63;0.93;;;;;;;9.10;100.00;93022.25;5073043;28;20244;-77
2021/05/17 08:52:47;;;;;;;3.50;0.70;;;;;;;9.38;100.00;93018.44;5073164;28;20206;-77
2021/05/17 08:55:14;;;;;;;7.00;0.90;;;;;;;9.42;100.00;93024.81;5073115;28;20670;-77
2021/05/17 08:57:42;;;;;;;6.23;0.90;;;;;;;9.61;100.00;93031.69;5073313;28;20324;-77
2021/05/17 09:00:11;;;;;;;3.20;0.77;;;;;;;9.77;100.00;93017.31;5073166;28;20209;-76
2021/05/17 09:02:37;;;;;;;1.50;0.77;;;;;;;9.92;97.27;93024.81;5073164;28;20264;-77
2021/05/17 09:05:16;;;;;;;2.47;0.80;;;;;;;10.17;100.00;93018.75;5072745;28;20462;-77
2021/05/17 09:07:44;;;;;;;3.13;0.80;;;;;;;10.41;97.20;93005.88;5072953;28;20202;-78
2021/05/17 09:10:15;;;;;;;1.77;0.60;;;;;;;10.42;95.14;93012.72;5073108;28;20222;-76
2021/05/17 09:12:55;;;;;;;1.27;0.70;;;;;;;10.59;91.69;93011.13;5072763;28;20264;-77
2021/05/17 09:15:31;;;;;;;4.07;0.70;;;;;;;10.44;91.80;93018.50;5072475;28;20677;-77
2021/05/17 09:17:58;;;;;;;2.20;0.60;;;;;;;10.17;89.52;93016.16;5072863;28;20202;-77
2021/05/17 09:20:27;;;;;;;1.70;0.80;;;;;;;10.26;89.66;93033.13;5072892;28;20213;-76
2021/05/17 09:23:14;;;;;;;2.13;0.80;;;;;;;10.17;91.23;93016.16;5072753;28;20330;-76
2021/05/17 09:26:00;;;;;;;2.20;0.83;;;;;;;10.33;92.47;93020.03;5072765;28;20230;-77
2021/05/17 09:28:27;;;;;;;1.63;0.87;;;;;;;10.69;92.42;93021.00;5075626;28;20209;-76
2021/05/17 09:31:02;;;;;;;4.17;0.80;;;;;;;10.74;91.87;93032.41;5093078;28;20199;-75
2021/05/17 09:33:30;;;;;;;2.53;0.73;;;;;;;10.59;96.56;93033.78;5093090;28;20221;-75
2021/05/17 09:35:55;;;;;;;4.03;1.00;;;;;;;10.68;95.55;93033.28;5092949;28;20206;-75
2021/05/17 09:38:24;;;;;;;3.30;0.90;;;;;;;10.76;90.72;93023.53;5092856;28;20252;-76
2021/05/17 09:41:05;;;;;;;1.47;0.60;;;;;;;10.58;93.52;93034.81;5092785;28;20251;-75
2021/05/17 09:43:32;;;;;;;4.83;0.90;;;;;;;10.44;93.89;93034.16;5092773;28;20259;-74
2021/05/17 09:46:00;;;;;;;1.83;0.57;;;;;;;10.57;93.10;93041.84;5092848;28;20257;-75
2021/05/17 09:48:28;;;;;;;1.53;0.77;;;;;;;10.77;92.04;93039.00;5092749;28;20197;-75
2021/05/17 09:50:56;;;;;;;0.60;0.60;;;;;;;11.02;90.67;93043.31;5092739;28;20194;-75
2021/05/17 09:53:23;;;;;;;3.27;0.70;;;;;;;10.11;95.98;93053.53;5092577;28;20216;-77
2021/05/17 09:55:49;;;;;;;3.57;0.80;;;;;;;9.40;100.00;93053.69;5092972;28;20251;-77
2021/05/17 09:58:26;;;;;;;4.33;1.40;;;;;;;9.36;100.00;93056.91;5092692;28;20198;-80
2021/05/17 10:01:05;;;;;;;0.87;0.50;;;;;;;9.74;100.00;93053.44;5092644;28;20251;-77
2021/05/17 10:03:34;;;;;;;2.40;0.93;;;;;;;10.10;100.00;93047.50;5085176;28;20195;-77
2021/05/17 10:06:00;;;;;;;2.47;1.00;;;;;;;10.25;100.00;93051.59;5072023;28;20229;-76
2021/05/17 10:08:26;;;;;;;5.73;1.33;;;;;;;10.60;100.00;93051.06;5072428;28;20207;-78
2021/05/17 10:10:52;;;;;;;3.57;0.90;;;;;;;10.49;99.78;93050.78;5072240;28;20730;-78
2021/05/17 10:13:19;;;;;;;4.97;0.80;;;;;;;10.48;97.33;93048.38;5072331;28;20206;-76
2021/05/17 10:15:47;;;;;;;2.90;1.00;;;;;;;10.38;98.23;93048.09;5072251;28;20213;-76
2021/05/17 10:18:15;;;;;;;1.43;0.90;;;;;;;10.57;96.60;93057.50;5072326;28;20245;-76
2021/05/17 10:20:42;;;;;;;1.73;0.90;;;;;;;10.56;94.39;93040.25;5072372;28;20248;-77
2021/05/17 10:23:09;;;;;;;1.60;0.70;;;;;;;10.63;97.22;93067.06;5072060;28;20231;-76
2021/05/17 10:25:35;;;;;;;1.93;0.70;;;;;;;10.31;96.89;93050.75;5072659;28;20316;-75
2021/05/17 10:28:08;;;;;;;1.53;0.70;;;;;;;9.92;97.51;93030.03;5076076;28;20292;-80
2021/05/17 10:30:35;;;;;;;1.23;0.60;;;;;;;9.58;100.00;93062.59;5075647;28;20955;-77
2021/05/17 10:33:02;;;;;;;3.97;0.97;;;;;;;9.50;100.00;93079.28;5075963;28;20289;-78
2021/05/17 10:35:32;;;;;;;1.83;0.53;;;;;;;9.63;100.00;93073.97;5075744;28;20252;-79
2021/05/17 10:38:14;;;;;;;3.23;0.70;;;;;;;9.92;100.00;93082.16;5085994;28;20204;-77
2021/05/17 10:40:42;;;;;;;1.97;0.63;;;;;;;9.95;100.00;93081.75;5093403;28;20227;-76
2021/05/17 10:43:16;;;;;;;2.00;0.80;;;;;;;10.02;100.00;93086.13;5095898;28;20198;-78
2021/05/17 10:48:30;;;;;;;1.70;0.70;;;;;;;10.20;100.00;93075.72;5069609;28;20201;-82
2021/05/17 10:51:14;;;;;;;2.53;1.20;;;;;;;10.12;99.75;93070.78;5095752;28;20209;-78
2021/05/17 10:53:53;;;;;;;4.47;0.70;;;;;;;9.84;100.00;93081.63;5095699;28;20387;-77
2021/05/17 10:56:47;;;;;;;1.10;0.70;;;;;;;9.63;100.00;93068.75;5095678;28;20197;-77
2021/05/17 11:01:59;;;;;;;1.70;0.67;;;;;;;10.32;100.00;93062.78;5095584;28;20255;-76
2021/05/17 11:04:30;;;;;;;2.73;0.60;;;;;;;10.53;100.00;93069.41;5095285;28;20303;-76
2021/05/17 11:07:15;;;;;;;1.63;0.60;;;;;;;10.30;100.00;93068.19;5095730;28;20197;-75
2021/05/17 11:09:43;;;;;;;0.73;0.70;;;;;;;10.39;99.03;93080.97;5095404;28;20290;-76
2021/05/17 11:13:02;;;;;;;4.43;0.70;;;;;;;11.07;100.00;93067.75;5095350;28;20202;-76
2021/05/17 11:15:52;;;;;;;0.60;0.60;;;;;;;10.97;98.97;93072.69;5095450;28;20415;-76
2021/05/17 11:18:28;;;;;;;2.00;0.67;;;;;;;10.32;96.87;93081.84;5095318;28;20202;-76
2021/05/17 11:20:56;;;;;;;1.07;0.77;;;;;;;10.32;100.00;93070.59;5095180;28;20201;-76
2021/05/17 11:23:46;;;;;;;1.87;0.70;;;;;;;10.84;100.00;93067.63;5095067;28;20243;-76
2021/05/17 11:26:14;;;;;;;2.10;0.80;;;;;;;10.51;100.00;93074.84;5094868;28;20320;-76
2021/05/17 11:29:02;;;;;;;1.97;0.70;;;;;;;10.43;100.00;93085.56;5095011;28;20202;-76
2021/05/17 11:31:37;;;;;;;0.63;0.50;;;;;;;10.05;99.64;93090.91;5094844;28;20198;-75
2021/05/17 11:34:13;;;;;;;1.43;0.70;;;;;;;10.05;97.88;93080.47;5095194;28;20247;-76
2021/05/17 11:36:42;;;;;;;2.20;0.60;;;;;;;10.31;99.50;93085.44;5094691;28;20197;-76
2021/05/17 11:39:16;;;;;;;3.20;0.67;;;;;;;10.74;100.00;93084.63;5094927;28;20205;-76
2021/05/17 11:41:45;;;;;;;0.53;0.50;;;;;;;11.00;96.44;93085.31;5094577;28;20197;-76
2021/05/17 11:44:13;;;;;;;1.83;0.60;;;;;;;11.65;91.01;93079.41;5094787;28;20202;-76
2021/05/17 11:46:41;;;;;;;2.73;0.90;;;;;;;11.97;88.44;93071.31;5094810;28;20209;-77
2021/05/17 11:49:11;;;;;;;0.60;0.53;;;;;;;11.90;89.92;93064.56;5094552;28;20228;-76
2021/05/17 11:51:38;;;;;;;1.17;0.60;;;;;;;11.45;88.97;93071.84;5094552;28;20293;-76
2021/05/17 11:54:05;;;;;;;1.93;0.60;;;;;;;11.43;94.32;93066.06;5094469;28;20229;-77
2021/05/17 11:56:39;;;;;;;1.23;0.60;;;;;;;11.60;89.56;93070.66;5094381;28;20206;-77